Latest Weather Observations for Kowanyama

IDQ60801

Issued at 6:05 pm EST Sunday 31 August 2014 (issued every 30 minutes, with the page automatically refreshed every 10 minutes)

About weather observations | Map of weather stations | Latest weather observations for QLD | Other Formats
Station Details ID: 029038 Name: KOWANYAMA AIRPORT Lat: -15.48 Lon: 141.75 Height: 9.6 m
Data from the previous 72 hours. | See also: Recent months at Kowanyama
Date/Time
EST
Temp
°C
App
Temp
°C
Dew
Point
Rel
Hum
%
Delta-T
°C
Wind Press
QNH
hPa
Press
MSL
hPa
Rain
since 9 am
mm
Dir
 
Spd
km/h
Gust
km/h
Spd
kts
Gust
kts
31/06:00pm 27.6 25.7 14.3 44 8.0 WSW 17 22 9 12 1011.2 1011.1 0.0
31/05:30pm 28.7 26.2 14.1 40 8.8 WSW 20 28 11 15 1010.9 1010.8 0.0
31/05:00pm 29.8 27.7 13.5 36 9.7 WSW 17 20 9 11 1010.7 1010.6 0.0
31/04:30pm 31.7 29.5 8.0 23 13.1 E 9 13 5 7 1010.5 1010.4 0.0
31/04:00pm 31.3 28.3 7.7 23 12.9 SSE 13 20 7 11 1010.5 1010.4 0.0
31/03:30pm 31.5 29.2 9.1 25 12.6 SE 11 17 6 9 1010.5 1010.4 0.0
31/03:00pm 31.5 29.2 9.1 25 12.6 SSE 11 20 6 11 1010.9 1010.8 0.0
31/02:30pm 31.0 28.8 9.3 26 12.2 S 11 19 6 10 1011.3 1011.2 0.0
31/02:00pm 30.7 28.6 9.6 27 11.9 ESE 11 22 6 12 1011.9 1011.8 0.0
31/01:30pm 30.4 28.2 9.3 27 11.8 S 11 17 6 9 1012.6 1012.5 0.0
31/01:00pm 30.8 28.8 10.2 28 11.7 ESE 11 20 6 11 1013.1 1013.0 0.0
31/12:30pm 29.6 27.3 11.6 33 10.4 ESE 15 20 8 11 1013.6 1013.5 0.0
31/12:00pm 28.6 27.3 12.5 37 9.4 E 11 19 6 10 1014.2 1014.1 0.0
31/11:30am 28.2 26.8 12.1 37 9.3 E 11 19 6 10 1014.9 1014.9 0.0
31/11:00am 27.9 26.6 13.8 42 8.4 E 13 22 7 12 1015.4 1015.4 0.0
31/10:30am 27.1 25.8 13.8 44 7.9 E 13 20 7 11 1015.8 1015.8 0.0
31/10:00am 25.8 24.5 13.6 47 7.2 ENE 13 19 7 10 1016.1 1016.1 0.0
31/09:30am 24.6 23.1 14.1 52 6.2 E 15 22 8 12 1016.3 1016.3 0.0
31/09:00am 23.7 22.6 14.4 56 5.5 E 13 19 7 10 1016.5 1016.5 0.0
31/08:30am 22.2 21.3 13.8 59 4.9 ENE 11 15 6 8 1016.3 1016.3 0.0
31/08:00am 20.6 20.6 14.3 67 3.7 E 7 11 4 6 1016.2 1016.2 0.0
31/07:30am 18.7 19.1 14.8 78 2.3 E 6 7 3 4 1015.9 1015.9 0.0
31/07:00am 16.5 16.6 14.0 85 1.4 E 6 7 3 4 1015.6 1015.6 0.0
31/06:30am 16.9 17.0 14.0 83 1.6 E 6 7 3 4 1015.2 1015.2 0.0
31/06:00am 17.3 17.6 14.4 83 1.7 E 6 7 3 4 1014.9 1014.9 0.0
31/05:30am 17.4 18.7 14.1 81 1.9 CALM 0 0 0 0 1014.7 1014.7 0.0
31/05:00am 18.3 19.3 14.2 77 2.4 NE 2 7 1 4 1014.6 1014.6 0.0
31/04:30am 18.9 19.2 14.4 75 2.6 NE 6 7 3 4 1014.5 1014.5 0.0
31/04:00am 19.7 19.9 14.3 71 3.1 NE 6 7 3 4 1014.5 1014.5 0.0
31/03:30am 20.1 20.5 14.7 71 3.2 ENE 6 7 3 4 1014.4 1014.4 0.0
31/03:00am 20.7 21.1 14.8 69 3.5 E 6 9 3 5 1014.2 1014.1 0.0
31/02:30am 20.3 20.9 15.3 73 3.0 NE 6 9 3 5 1014.2 1014.1 0.0
31/02:00am 20.1 20.7 15.9 77 2.5 ENE 7 11 4 6 1014.2 1014.1 0.0
31/01:30am 19.9 20.9 16.3 80 2.2 SE 6 7 3 4 1014.5 1014.5 0.0
31/01:00am 20.4 21.4 16.4 78 2.4 E 6 9 3 5 1014.8 1014.8 0.0
31/12:30am 20.7 21.9 16.9 79 2.3 ESE 6 7 3 4 1014.9 1014.9 0.0
31/12:00am 20.3 21.5 16.9 81 2.1 E 6 9 3 5 1014.9 1014.9 0.0
 
Date/Time
EST
Temp
°C
App
Temp
°C
Dew
Point
Rel
Hum
%
Delta-T
°C
Wind Press
QNH
hPa
Press
MSL
hPa
Rain
since 9 am
mm
Dir
 
Spd
km/h
Gust
km/h
Spd
kts
Gust
kts
30/11:30pm 20.8 21.6 17.4 81 2.1 ENE 9 11 5 6 1014.9 1014.9 0.0
30/11:00pm 20.7 21.4 17.9 84 1.7 ENE 11 15 6 8 1014.9 1014.9 0.0
30/10:30pm 21.4 23.9 18.2 82 2.0 SSW 2 6 1 3 1014.5 1014.5 0.0
30/10:00pm 21.5 23.0 17.7 79 2.3 SSW 6 9 3 5 1014.3 1014.2 0.0
30/09:30pm 21.8 23.5 18.0 79 2.4 SW 6 9 3 5 1014.4 1014.4 0.0
30/09:00pm 22.1 23.2 18.1 78 2.5 SSW 9 15 5 8 1014.2 1014.1 0.0
30/08:30pm 22.4 22.9 17.5 74 3.0 SSW 11 15 6 8 1013.9 1013.8 0.0
30/08:00pm 22.9 23.2 17.1 70 3.6 SW 11 15 6 8 1013.5 1013.4 0.0
30/07:30pm 23.6 23.9 17.1 67 4.0 SW 11 13 6 7 1013.2 1013.1 0.0
30/07:00pm 24.3 24.9 16.8 63 4.6 WSW 9 13 5 7 1012.9 1012.8 0.0
30/06:30pm 25.4 24.4 16.5 58 5.5 WSW 17 22 9 12 1012.5 1012.4 0.0
30/06:00pm 27.0 25.4 16.0 51 6.8 WSW 19 26 10 14 1012.2 1012.1 0.0
30/05:30pm 30.5 29.4 10.5 29 11.4 SE 7 9 4 5 1011.8 1011.7 0.0
30/05:00pm 30.8 29.2 10.2 28 11.7 ESE 9 15 5 8 1011.6 1011.5 0.0
30/04:30pm 30.9 28.6 10.3 28 11.8 ESE 13 20 7 11 1011.7 1011.6 0.0
30/04:00pm 31.1 29.9 11.5 30 11.4 ESE 9 15 5 8 1011.6 1011.5 0.0
30/03:30pm 31.1 29.9 11.5 30 11.4 ESE 9 20 5 11 1011.9 1011.8 0.0
30/03:00pm 30.0 27.3 10.5 30 11.1 SE 15 24 8 13 1012.1 1012.0 0.0
30/02:30pm 30.6 28.4 12.0 32 10.9 ESE 15 20 8 11 1012.6 1012.5 0.0
30/02:00pm 31.0 28.9 12.4 32 11.0 SE 15 22 8 12 1013.2 1013.1 0.0
30/01:30pm 30.0 27.9 11.0 31 10.9 E 13 22 7 12 1014.0 1013.9 0.0
30/01:00pm 28.8 27.6 12.7 37 9.5 ESE 11 20 6 11 1014.4 1014.4 0.0
30/12:30pm 29.5 27.8 13.7 38 9.5 SE 15 24 8 13 1014.9 1014.9 0.0
30/12:00pm 28.7 27.3 14.5 42 8.6 E 15 20 8 11 1015.4 1015.4 0.0
30/11:30am 28.8 28.1 15.3 43 8.3 E 13 19 7 10 1015.8 1015.8 0.0
30/11:00am 27.0 25.7 14.7 47 7.4 E 15 24 8 13 1016.3 1016.3 0.0
30/10:30am 26.6 25.4 15.0 49 7.0 E 15 24 8 13 1016.4 1016.4 0.0
30/10:00am 25.8 24.4 15.5 53 6.2 E 17 33 9 18 1016.7 1016.7 0.0
30/09:30am 24.8 22.9 15.1 54 5.8 ENE 19 26 10 14 1016.6 1016.6 0.0
30/09:00am 23.6 23.5 14.9 58 5.2 ENE 9 17 5 9 1016.6 1016.6 0.0
30/08:30am 22.5 22.8 14.4 60 4.8 SE 6 11 3 6 1016.4 1016.4 0.0
30/08:00am 18.8 19.5 14.5 76 2.5 ENE 4 7 2 4 1016.2 1016.2 0.0
30/07:30am 18.1 19.4 14.2 78 2.2 CALM 0 6 0 3 1015.9 1015.9 0.0
30/07:00am 16.8 17.8 13.1 79 2.1 CALM 0 0 0 0 1015.7 1015.7 0.0
30/06:30am 16.9 18.0 13.4 80 2.0 CALM 0 0 0 0 1015.3 1015.3 0.0
30/06:00am 17.6 18.7 13.5 77 2.3 CALM 0 0 0 0 1015.2 1015.2 0.0
30/05:30am 18.0 19.2 13.9 77 2.3 CALM 0 0 0 0 1014.9 1014.9 0.0
30/05:00am 18.5 19.6 13.6 73 2.8 CALM 0 0 0 0 1014.8 1014.8 0.0
30/04:30am 18.6 19.8 13.9 74 2.7 CALM 0 0 0 0 1014.7 1014.7 0.0
30/04:00am 18.7 18.7 13.6 72 2.9 NE 6 7 3 4 1014.6 1014.6 0.0
30/03:30am 19.3 19.0 12.8 66 3.7 E 6 9 3 5 1014.6 1014.6 0.0
30/03:00am 19.2 18.9 13.4 69 3.3 E 7 9 4 5 1014.7 1014.7 0.0
30/02:30am 18.6 18.8 14.1 75 2.6 NE 6 7 3 4 1014.8 1014.8 0.0
30/02:00am 18.8 19.1 14.5 76 2.5 E 6 9 3 5 1014.7 1014.7 0.0
30/01:30am 18.3 19.9 15.0 81 1.9 CALM 0 0 0 0 1014.8 1014.8 0.0
30/01:00am 18.4 19.8 14.5 78 2.3 CALM 0 0 0 0 1014.8 1014.8 0.0
30/12:30am 18.7 19.6 15.0 79 2.2 E 4 7 2 4 1015.1 1015.1 0.0
30/12:00am 18.3 18.1 15.7 85 1.5 ENE 11 13 6 7 1015.1 1015.1 0.0
 
Date/Time
EST
Temp
°C
App
Temp
°C
Dew
Point
Rel
Hum
%
Delta-T
°C
Wind Press
QNH
hPa
Press
MSL
hPa
Rain
since 9 am
mm
Dir
 
Spd
km/h
Gust
km/h
Spd
kts
Gust
kts
29/11:30pm 17.5 19.1 15.0 85 1.5 CALM 0 0 0 0 1014.5 1014.5 0.0
29/11:00pm 18.4 20.3 15.8 85 1.5 CALM 0 0 0 0 1014.6 1014.6 0.0
29/10:30pm 19.1 21.0 15.8 81 2.0 CALM 0 0 0 0 1014.6 1014.6 0.0
29/10:00pm 19.3 20.1 15.8 80 2.1 SSW 6 7 3 4 1014.7 1014.7 0.0
29/09:30pm 19.6 20.3 15.7 78 2.3 W 6 7 3 4 1014.8 1014.8 0.0
29/09:00pm 20.7 21.5 15.9 74 2.9 WSW 6 7 3 4 1014.8 1014.8 0.0
29/08:30pm 21.2 21.4 15.7 71 3.3 WSW 9 13 5 7 1014.7 1014.7 0.0
29/08:00pm 21.8 21.6 14.7 64 4.2 SW 9 13 5 7 1014.2 1014.1 0.0
29/07:30pm 22.7 22.3 14.0 58 5.1 WSW 9 11 5 6 1013.7 1013.6 0.0
29/07:00pm 23.8 22.9 13.6 52 5.9 WSW 11 15 6 8 1013.5 1013.4 0.0
29/06:30pm 24.9 22.7 12.2 45 7.3 W 15 20 8 11 1013.1 1013.0 0.0
29/06:00pm 27.3 24.8 9.6 33 9.8 W 13 20 7 11 1012.6 1012.5 0.0
29/05:30pm 30.7 27.2 1.1 15 14.5 ESE 9 17 5 9 1012.3 1012.2 0.0
29/05:00pm 31.1 27.3 -0.5 13 15.1 ESE 9 17 5 9 1012.2 1012.1 0.0
29/04:30pm 31.2 26.7 -0.5 13 15.1 SE 13 19 7 10 1012.2 1012.1 0.0
29/04:00pm 31.3 27.2 -0.4 13 15.2 SSE 11 20 6 11 1012.1 1012.0 0.0
29/03:30pm 31.3 27.5 -0.4 13 15.2 ESE 9 20 5 11 1012.1 1012.0 0.0
29/03:00pm 31.3 27.3 0.6 14 14.9 E 11 20 6 11 1012.5 1012.4 0.0
29/02:30pm 31.0 26.4 1.4 15 14.6 SE 15 20 8 11 1012.9 1012.8 0.0
29/02:00pm 30.3 26.6 2.5 17 13.9 ESE 11 28 6 15 1013.2 1013.1 0.0
29/01:30pm 29.9 24.7 2.2 17 13.7 E 19 28 10 15 1013.7 1013.6 0.0
29/01:00pm 30.0 24.5 3.9 19 13.3 SE 22 30 12 16 1014.2 1014.1 0.0
29/12:30pm 29.3 25.1 4.0 20 12.9 E 15 26 8 14 1014.8 1014.8 0.0
29/12:00pm 28.3 24.0 5.2 23 11.9 ESE 17 26 9 14 1015.1 1015.1 0.0
29/11:30am 28.8 25.0 7.4 26 11.5 ESE 17 24 9 13 1015.6 1015.6 0.0
29/11:00am 26.7 22.4 7.2 29 10.3 E 19 26 10 14 1016.1 1016.1 0.0
29/10:30am 25.6 21.5 7.7 32 9.5 E 19 26 10 14 1016.3 1016.3 0.0
29/10:00am 24.7 20.6 8.6 36 8.6 ESE 20 32 11 17 1016.5 1016.5 0.0
29/09:30am 23.4 20.4 10.5 44 7.1 E 17 28 9 15 1016.7 1016.7 0.0
29/09:00am 21.9 19.6 11.6 52 5.7 E 15 22 8 12 1016.7 1016.7 0.4
29/08:30am 20.3 19.4 12.5 61 4.4 E 9 13 5 7 1016.3 1016.3 0.4
29/08:00am 18.4 17.6 13.0 71 3.0 ESE 9 15 5 8 1016.1 1016.1 0.4
29/07:30am 14.5 13.9 11.8 84 1.5 E 6 7 3 4 1015.9 1015.9 0.4
29/07:00am 12.7 13.1 11.3 91 0.7 CALM 0 0 0 0 1015.7 1015.7 0.4
29/06:30am 12.8 13.1 10.9 88 1.0 CALM 0 0 0 0 1015.5 1015.5 0.4
29/06:00am 13.1 13.4 11.0 87 1.1 CALM 0 0 0 0 1015.5 1015.5 0.4
29/05:30am 13.6 14.0 11.1 85 1.3 CALM 0 0 0 0 1015.2 1015.2 0.4
29/05:00am 14.1 13.2 10.7 80 1.8 E 6 7 3 4 1015.0 1015.0 0.4
29/04:30am 14.5 13.5 10.3 76 2.2 E 6 9 3 5 1015.0 1015.0 0.4
29/04:00am 14.9 13.8 9.9 72 2.6 ENE 6 9 3 5 1014.9 1014.9 0.4
29/03:30am 15.6 14.3 9.9 69 3.0 E 7 11 4 6 1014.9 1014.9 0.4
29/03:00am 14.9 13.6 9.3 69 2.9 E 6 7 3 4 1014.6 1014.6 0.4
29/02:30am 14.9 13.8 9.9 72 2.6 E 6 7 3 4 1014.8 1014.8 0.4
29/02:00am 15.2 14.1 10.0 71 2.7 ESE 6 7 3 4 1015.0 1015.0 0.4
29/01:30am 15.3 14.1 10.3 72 2.6 E 7 9 4 5 1015.1 1015.1 0.4
29/01:00am 15.9 14.8 9.8 67 3.2 NE 6 9 3 5 1015.1 1015.1 0.4
29/12:30am 17.3 16.6 10.0 62 3.9 SE 4 9 2 5 1015.1 1015.1 0.4
29/12:00am 17.1 17.0 9.5 61 4.0 CALM 0 0 0 0 1014.9 1014.9 0.4
 
Date/Time
EST
Temp
°C
App
Temp
°C
Dew
Point
Rel
Hum
%
Delta-T
°C
Wind Press
QNH
hPa
Press
MSL
hPa
Rain
since 9 am
mm
Dir
 
Spd
km/h
Gust
km/h
Spd
kts
Gust
kts
28/11:30pm 18.4 17.0 9.5 56 4.7 SW 7 11 4 6 1015.0 1015.0 0.4
28/11:00pm 19.9 17.6 10.3 54 5.2 SSW 13 17 7 9 1015.2 1015.2 0.4
28/10:30pm 19.0 18.2 11.1 60 4.3 SSW 6 7 3 4 1015.2 1015.2 0.4
28/10:00pm 19.4 19.0 11.2 59 4.5 SW 4 7 2 4 1015.1 1015.1 0.4
28/09:30pm 19.9 19.7 11.7 59 4.5 SW 4 7 2 4 1015.1 1015.1 0.4
28/09:00pm 20.3 19.2 12.0 59 4.6 SW 9 13 5 7 1015.2 1015.2 0.4
28/08:30pm 21.0 20.5 12.2 57 4.9 WSW 6 9 3 5 1015.1 1015.1 0.4
28/08:00pm 21.5 20.4 12.1 55 5.3 SW 9 13 5 7 1014.7 1014.7 0.4
28/07:30pm 22.7 21.6 12.0 50 6.0 SW 9 17 5 9 1014.3 1014.2 0.4
28/07:00pm 23.8 22.0 12.1 48 6.6 WSW 13 20 7 11 1013.8 1013.7 0.4
28/06:30pm 25.1 23.0 11.3 42 7.8 WSW 13 20 7 11 1013.5 1013.4 0.4

Other Formats:

Comma delimited format used in spreadsheet applications
http://www.bom.gov.au/fwo/IDQ60801/IDQ60801.94268.axf

JavaScript Object Notation format (JSON) in row-major order
http://www.bom.gov.au/fwo/IDQ60801/IDQ60801.94268.json